Latest Weather Observations for Hay Airport

IDN60801

Issued at 3:35 pm EST Monday 22 September 2014 (issued every 30 minutes, with the page automatically refreshed every 10 minutes)

About weather observations | Map of weather stations | Latest weather observations for NSW | Other Formats
Station Details ID: 075019 Name: HAY AIRPORT AWS Lat: -34.54 Lon: 144.83 Height: 92.0 m
Data from the previous 72 hours. | See also: Recent months for locations in New South Wales
Date/Time
EST
Temp
°C
App
Temp
°C
Dew
Point
Rel
Hum
%
Delta-T
°C
Wind Press
QNH
hPa
Press
MSL
hPa
Rain
since 9 am
mm
Dir
 
Spd
km/h
Gust
km/h
Spd
kts
Gust
kts
22/03:30pm 24.8 20.0 -2.7 16 12.0 E 13 22 7 12 1025.0 1024.9 0.0
22/03:00pm 25.7 20.0 -3.8 14 12.7 NNE 17 28 9 15 1025.1 1025.0 0.0
22/02:30pm 25.1 19.3 -4.2 14 12.5 NE 17 26 9 14 1025.4 1025.4 0.0
22/02:00pm 25.0 20.7 -1.7 17 11.9 NNE 11 22 6 12 1025.7 1025.7 0.0
22/01:30pm 25.0 20.2 -2.5 16 12.1 ENE 13 20 7 11 1026.2 1026.2 0.0
22/01:00pm 24.3 18.4 -2.3 17 11.6 ENE 19 26 10 14 1026.7 1026.7 0.0
22/12:30pm 24.0 18.4 -0.3 20 11.1 ENE 19 28 10 15 1027.4 1027.4 0.0
22/12:00pm 23.6 18.4 -2.8 17 11.4 ENE 15 24 8 13 1027.9 1027.9 0.0
22/11:30am 22.5 18.0 -0.3 22 10.3 NE 13 19 7 10 1028.5 1028.5 0.0
22/11:00am 22.4 17.5 2.0 26 9.5 N 17 26 9 14 1028.7 1028.7 0.0
22/10:30am 22.2 17.0 3.3 29 9.1 NNE 20 28 11 15 1029.1 1029.1 0.0
22/10:00am 21.5 16.6 4.1 32 8.4 NE 19 26 10 14 1029.1 1029.1 0.0
22/09:30am 20.6 16.2 5.0 36 7.7 NE 17 24 9 13 1029.2 1029.2 0.0
22/09:00am 18.5 15.1 5.7 43 6.2 ENE 13 20 7 11 1029.2 1029.2 0.0
22/08:30am 16.0 12.0 5.0 48 5.2 ENE 15 20 8 11 1029.2 1029.2 0.0
22/08:00am 13.7 10.0 4.6 54 4.2 E 13 17 7 9 1029.3 1029.3 0.0
22/07:30am 11.0 7.2 4.0 62 3.1 E 13 17 7 9 1029.1 1029.1 0.0
22/07:00am 8.1 4.3 3.9 75 1.8 E 13 19 7 10 1028.8 1028.8 0.0
22/06:30am 5.3 1.7 2.7 83 1.1 E 11 15 6 8 1028.7 1028.7 0.0
22/06:00am 5.0 1.0 2.9 86 0.9 E 13 15 7 8 1028.4 1028.4 0.0
22/05:30am 4.7 1.4 2.2 84 1.0 ESE 9 11 5 6 1028.1 1028.1 0.0
22/05:00am 5.7 2.1 3.2 84 1.0 ESE 11 13 6 7 1027.6 1027.6 0.0
22/04:30am 5.3 2.0 2.7 83 1.1 E 9 9 5 5 1027.4 1027.4 0.0
22/04:00am 5.9 2.6 2.7 80 1.3 ESE 9 11 5 6 1027.1 1027.1 0.0
22/03:30am 6.2 2.6 2.7 78 1.5 SE 11 11 6 6 1027.1 1027.1 0.0
22/03:00am 5.8 2.1 2.3 78 1.4 SE 11 13 6 7 1027.1 1027.1 0.0
22/02:30am 6.0 2.7 2.5 78 1.4 ESE 9 11 5 6 1027.3 1027.3 0.0
22/02:00am 6.8 3.2 3.1 77 1.5 SE 11 15 6 8 1027.4 1027.4 0.0
22/01:30am 7.1 3.9 2.8 74 1.8 ESE 9 9 5 5 1027.7 1027.7 0.0
22/01:00am 8.0 4.8 3.3 72 2.0 ESE 9 11 5 6 1028.0 1028.0 0.0
22/12:30am 8.3 5.1 3.0 69 2.3 SE 9 13 5 7 1028.3 1028.3 0.0
22/12:00am 8.9 5.7 3.1 67 2.5 SE 9 13 5 7 1028.5 1028.5 0.0
 
Date/Time
EST
Temp
°C
App
Temp
°C
Dew
Point
Rel
Hum
%
Delta-T
°C
Wind Press
QNH
hPa
Press
MSL
hPa
Rain
since 9 am
mm
Dir
 
Spd
km/h
Gust
km/h
Spd
kts
Gust
kts
21/11:30pm 9.7 6.1 3.0 63 2.9 ESE 11 15 6 8 1028.5 1028.5 0.0
21/11:00pm 10.4 6.5 3.2 61 3.1 ESE 13 15 7 8 1028.5 1028.5 0.0
21/10:30pm 10.6 6.9 2.4 57 3.5 SE 11 13 6 7 1028.6 1028.6 0.0
21/10:00pm 11.3 7.6 2.1 53 3.9 SE 11 13 6 7 1028.5 1028.5 0.0
21/09:30pm 12.5 8.8 2.4 50 4.4 SE 11 13 6 7 1028.2 1028.2 0.0
21/09:00pm 14.0 9.6 2.9 47 4.9 SE 15 20 8 11 1027.9 1027.9 0.0
21/08:30pm 15.0 10.2 2.5 43 5.6 SE 17 22 9 12 1027.6 1027.6 0.0
21/08:00pm 15.7 10.8 2.2 40 6.0 SSE 17 20 9 11 1027.3 1027.3 0.0
21/07:30pm 16.0 11.6 0.6 35 6.7 SSE 13 17 7 9 1027.0 1027.0 0.0
21/07:00pm 16.8 12.2 -0.9 30 7.4 SSE 13 15 7 8 1026.8 1026.8 0.0
21/06:30pm 18.0 13.7 -1.3 27 8.2 SSE 11 15 6 8 1026.4 1026.4 0.0
21/06:00pm 20.6 16.5 -0.1 25 9.2 S 11 20 6 11 1026.0 1026.0 0.0
21/05:30pm 21.8 17.6 -0.8 22 10.0 SSE 11 17 6 9 1025.9 1025.9 0.0
21/05:00pm 22.2 17.3 -0.5 22 10.1 SSE 15 24 8 13 1025.9 1025.9 0.0
21/04:30pm 22.8 18.6 -0.6 21 10.5 S 11 19 6 10 1025.9 1025.9 0.0
21/04:00pm 22.1 17.6 0.0 23 9.9 SSE 13 22 7 12 1026.2 1026.2 0.0
21/03:30pm 22.9 18.7 -1.2 20 10.7 SSW 11 22 6 12 1026.3 1026.3 0.0
21/03:00pm 23.5 20.0 1.2 23 10.4 S 9 17 5 9 1026.6 1026.6 0.0
21/02:30pm 22.8 19.6 0.6 23 10.2 SSW 7 15 4 8 1026.8 1026.8 0.0
21/02:00pm 21.8 17.8 0.4 24 9.7 SSE 11 19 6 10 1027.2 1027.2 0.0
21/01:30pm 22.3 19.2 1.3 25 9.7 NNW 7 19 4 10 1027.3 1027.3 0.0
21/01:00pm 21.2 18.8 2.0 28 8.9 N 4 13 2 7 1027.9 1027.9 0.0
21/12:30pm 20.4 16.7 2.3 30 8.4 W 11 19 6 10 1028.4 1028.4 0.0
21/12:00pm 19.9 17.1 3.2 33 7.8 S 7 13 4 7 1028.9 1028.9 0.0
21/11:30am 19.6 17.8 3.7 35 7.6 ENE 2 11 1 6 1029.3 1029.3 0.0
21/11:00am 18.5 16.1 4.3 39 6.7 E 6 15 3 8 1029.4 1029.4 0.0
21/10:30am 17.5 15.4 5.8 46 5.7 ESE 6 11 3 6 1029.7 1029.7 0.0
21/10:00am 16.5 13.9 6.3 51 5.0 E 9 13 5 7 1029.9 1029.9 0.0
21/09:30am 14.3 11.7 5.9 57 4.0 ESE 9 15 5 8 1029.9 1029.9 0.0
21/09:00am 12.9 9.5 6.0 63 3.2 SE 13 20 7 11 1029.9 1029.9 0.0
21/08:30am 10.7 6.4 5.3 69 2.5 SE 17 20 9 11 1029.9 1029.9 0.0
21/08:00am 9.0 4.6 4.8 75 1.9 SSE 17 22 9 12 1029.8 1029.8 0.0
21/07:30am 7.2 3.2 5.0 86 1.0 S 15 20 8 11 1029.5 1029.5 0.0
21/07:00am 3.6 0.7 2.7 94 0.4 SSW 7 11 4 6 1029.6 1029.6 0.0
21/06:30am 2.2 -1.6 1.5 95 0.3 S 11 13 6 7 1029.1 1029.1 0.0
21/06:00am 2.2 -2.0 1.6 96 0.2 S 13 13 7 7 1028.2 1028.2 0.0
21/05:30am 2.4 0.7 1.7 95 0.3 CALM 0 0 0 0 1027.6 1027.6 0.0
21/05:00am 2.1 0.3 0.9 92 0.5 CALM 0 0 0 0 1027.2 1027.2 0.0
21/04:30am 3.1 0.3 2.1 93 0.4 S 6 9 3 5 1026.9 1026.9 0.0
21/04:00am 3.1 -0.3 1.9 92 0.5 S 9 13 5 7 1026.7 1026.7 0.0
21/03:30am 4.1 0.1 2.8 91 0.5 S 13 15 7 8 1026.5 1026.5 0.0
21/03:00am 4.3 -0.1 2.7 89 0.6 S 15 17 8 9 1026.6 1026.6 0.0
21/02:30am 4.5 0.0 2.4 86 0.8 S 15 17 8 9 1026.8 1026.8 0.0
21/02:00am 4.3 0.5 1.5 82 1.1 S 11 13 6 7 1027.1 1027.1 0.0
21/01:30am 4.8 0.6 1.6 80 1.3 S 13 15 7 8 1027.6 1027.6 0.0
21/01:00am 5.6 1.4 1.9 77 1.5 S 13 17 7 9 1027.7 1027.7 0.0
21/12:30am 6.0 1.8 1.9 75 1.7 S 13 15 7 8 1027.7 1027.7 0.0
21/12:00am 7.9 4.0 3.2 72 2.0 S 13 17 7 9 1027.8 1027.8 0.0
 
Date/Time
EST
Temp
°C
App
Temp
°C
Dew
Point
Rel
Hum
%
Delta-T
°C
Wind Press
QNH
hPa
Press
MSL
hPa
Rain
since 9 am
mm
Dir
 
Spd
km/h
Gust
km/h
Spd
kts
Gust
kts
20/11:30pm 7.4 3.8 2.7 72 2.0 S 11 13 6 7 1027.8 1027.8 0.0
20/11:00pm 7.2 3.8 1.9 69 2.2 S 9 11 5 6 1027.9 1027.9 0.0
20/10:30pm 8.3 5.0 2.3 66 2.5 S 9 11 5 6 1027.8 1027.8 0.0
20/10:00pm 8.6 4.8 2.0 63 2.7 S 11 13 6 7 1027.8 1027.8 0.0
20/09:30pm 11.0 7.1 3.3 59 3.4 S 13 17 7 9 1027.6 1027.6 0.0
20/09:00pm 10.7 6.7 3.0 59 3.3 S 13 15 7 8 1027.5 1027.5 0.0
20/08:30pm 10.4 6.6 2.0 56 3.6 S 11 15 6 8 1027.2 1027.2 0.0
20/08:00pm 11.9 7.4 2.4 52 4.1 S 15 19 8 10 1026.9 1026.9 0.0
20/07:30pm 14.2 9.4 2.8 46 5.1 S 17 22 9 12 1026.4 1026.4 0.0
20/07:00pm 14.9 10.0 2.1 42 5.6 S 17 20 9 11 1026.0 1026.0 0.0
20/06:30pm 15.9 11.4 2.0 39 6.2 S 15 19 8 10 1025.6 1025.6 0.0
20/06:00pm 17.8 12.6 2.2 35 7.1 S 19 28 10 15 1025.1 1025.0 0.0
20/05:30pm 18.8 12.9 1.8 32 7.7 S 22 30 12 16 1024.7 1024.6 0.0
20/05:00pm 19.5 13.1 1.0 29 8.3 S 24 32 13 17 1024.3 1024.2 0.0
20/04:30pm 19.6 13.2 1.1 29 8.4 SSW 24 32 13 17 1024.1 1024.0 0.0
20/04:00pm 19.8 13.7 0.3 27 8.6 S 22 33 12 18 1024.1 1024.0 0.0
20/03:30pm 20.4 14.3 0.3 26 9.0 S 22 33 12 18 1024.3 1024.2 0.0
20/03:00pm 20.1 14.0 0.5 27 8.7 S 22 35 12 19 1024.4 1024.3 0.0
20/02:30pm 19.6 13.1 0.6 28 8.5 SSW 24 35 13 19 1024.7 1024.6 0.0
20/02:00pm 19.6 13.2 1.1 29 8.3 S 24 35 13 19 1024.9 1024.8 0.0
20/01:30pm 18.8 12.0 0.9 30 8.0 SSW 26 35 14 19 1025.1 1025.0 0.0
20/01:00pm 18.5 12.2 1.5 32 7.6 SSW 24 37 13 20 1025.4 1025.4 0.0
20/12:30pm 18.5 11.8 1.5 32 7.7 SSW 26 37 14 20 1025.7 1025.7 0.0
20/12:00pm 17.3 9.9 1.7 35 7.0 SSW 30 39 16 21 1026.1 1026.1 0.0
20/11:30am 16.7 9.4 2.3 38 6.5 SSW 30 41 16 22 1026.5 1026.5 0.0
20/11:00am 16.6 10.5 2.6 39 6.3 SSW 24 35 13 19 1026.8 1026.8 0.0
20/10:30am 16.1 9.7 3.2 42 5.9 SW 26 33 14 18 1026.7 1026.7 0.0
20/10:00am 15.1 9.9 3.3 45 5.3 S 20 28 11 15 1027.0 1027.0 0.0
20/09:30am 14.5 8.9 3.3 47 5.1 S 22 30 12 16 1027.2 1027.2 0.0
20/09:00am 13.2 8.0 3.8 53 4.2 S 20 28 11 15 1027.2 1027.2 0.0
20/08:30am 12.5 7.8 5.0 60 3.5 S 19 26 10 14 1026.8 1026.8 0.0
20/08:00am 10.7 6.3 5.0 68 2.6 S 17 24 9 13 1026.5 1026.5 0.0
20/07:30am 8.2 4.8 4.2 76 1.8 S 11 13 6 7 1026.2 1026.2 0.0
20/07:00am 4.4 1.3 1.6 82 1.1 SSW 7 11 4 6 1025.9 1025.9 0.0
20/06:30am 1.5 -1.8 -1.6 80 1.1 SW 6 9 3 5 1025.7 1025.7 0.0
20/06:00am 1.3 -1.4 -2.3 77 1.2 WSW 2 6 1 3 1025.4 1025.4 0.0
20/05:30am 2.0 -1.9 -1.4 78 1.2 SSW 9 11 5 6 1025.2 1025.1 0.0
20/05:00am 1.7 -1.7 -2.1 76 1.3 S 6 6 3 3 1024.7 1024.6 0.0
20/04:30am 2.0 -1.7 -2.5 72 1.6 S 7 7 4 4 1024.3 1024.2 0.0
20/04:00am 2.3 -1.3 -2.0 73 1.5 S 7 9 4 5 1024.1 1024.0 0.0
20/03:30am 2.0 -0.3 -2.5 72 1.6 CALM 0 0 0 0 1024.2 1024.1 0.0
20/03:00am 2.9 0.7 -1.8 71 1.7 CALM 0 2 0 1 1024.1 1024.0 0.0
20/02:30am 3.4 0.0 -1.7 69 1.8 S 6 6 3 3 1024.2 1024.1 0.0
20/02:00am 3.4 0.4 -2.1 67 1.9 S 4 7 2 4 1024.2 1024.1 0.0
20/01:30am 4.3 0.9 -2.1 63 2.3 S 6 9 3 5 1024.5 1024.4 0.0
20/01:00am 4.7 0.4 -1.9 62 2.4 SSW 11 13 6 7 1024.4 1024.3 0.0
20/12:30am 5.6 0.7 -0.4 65 2.3 SSW 15 17 8 9 1024.1 1024.0 0.0
20/12:00am 5.0 1.6 -2.3 59 2.6 WSW 6 9 3 5 1024.1 1024.0 0.0
 
Date/Time
EST
Temp
°C
App
Temp
°C
Dew
Point
Rel
Hum
%
Delta-T
°C
Wind Press
QNH
hPa
Press
MSL
hPa
Rain
since 9 am
mm
Dir
 
Spd
km/h
Gust
km/h
Spd
kts
Gust
kts
19/11:30pm 5.5 3.3 -1.4 61 2.6 CALM 0 0 0 0 1024.1 1024.0 0.0
19/11:00pm 6.0 3.8 -1.9 57 2.9 CALM 0 4 0 2 1024.4 1024.3 0.0
19/10:30pm 6.7 3.4 -1.0 58 2.9 SSE 6 6 3 3 1024.4 1024.3 0.0
19/10:00pm 6.4 2.8 -2.2 54 3.1 SE 7 9 4 5 1024.6 1024.5 0.0
19/09:30pm 8.6 4.8 -0.9 51 3.7 S 9 11 5 6 1024.6 1024.5 0.0
19/09:00pm 9.0 4.8 -0.9 50 3.8 SSW 11 13 6 7 1024.5 1024.4 0.0
19/08:30pm 9.6 5.0 -0.9 48 4.1 SSW 13 17 7 9 1024.5 1024.4 0.0
19/08:00pm 10.6 5.7 -0.5 46 4.4 SSW 15 17 8 9 1024.2 1024.1 0.0
19/07:30pm 11.1 6.4 -1.6 41 5.0 SSW 13 17 7 9 1024.0 1023.9 0.0
19/07:00pm 12.5 7.9 -1.1 39 5.5 S 13 17 7 9 1023.6 1023.5 0.0
19/06:30pm 14.8 10.3 -0.5 35 6.4 S 13 17 7 9 1023.3 1023.2 0.0
19/06:00pm 16.0 11.4 -1.1 31 7.1 S 13 17 7 9 1023.0 1022.9 0.0
19/05:30pm 17.3 11.5 -1.4 28 7.9 SSW 19 26 10 14 1022.8 1022.7 0.0
19/05:00pm 18.0 12.2 -1.8 26 8.3 S 19 26 10 14 1022.6 1022.5 0.0
19/04:30pm 18.3 12.4 -1.0 27 8.3 SSW 20 26 11 14 1022.4 1022.4 0.0
19/04:00pm 18.4 12.5 -2.0 25 8.5 SSW 19 28 10 15 1022.4 1022.4 0.0

Other Formats:

Comma delimited format used in spreadsheet applications
http://www.bom.gov.au/fwo/IDN60801/IDN60801.94702.axf

JavaScript Object Notation format (JSON) in row-major order
http://www.bom.gov.au/fwo/IDN60801/IDN60801.94702.json